createdAt,value
2022-09-09T00:03:03.113Z,53.74168
2022-09-09T00:08:04.666Z,53.98379
2022-09-09T00:13:06.469Z,53.59233
2022-09-09T00:18:08.461Z,54.5896
2022-09-09T00:23:10.312Z,55.31415
2022-09-09T00:28:12.170Z,54.71264
2022-09-09T00:33:14.606Z,54.32749
2022-09-09T00:38:16.454Z,54.82705
2022-09-09T00:43:18.397Z,55.9986
2022-09-09T00:48:20.439Z,56.34624
2022-09-09T00:53:22.259Z,56.57744
2022-09-09T00:58:24.103Z,57.35176
2022-09-09T01:03:25.880Z,58.00705
2022-09-09T01:08:27.278Z,60.68268
2022-09-09T01:13:28.928Z,60.00141
2022-09-09T01:18:30.818Z,59.17223
2022-09-09T01:23:32.465Z,59.55231
2022-09-09T01:28:34.444Z,60.21965
2022-09-09T01:33:36.671Z,61.27341
2022-09-09T01:38:38.104Z,59.86264
2022-09-09T01:43:39.845Z,60.56263
2022-09-09T01:48:42.065Z,60.67899
2022-09-09T01:53:43.925Z,59.989
2022-09-09T01:58:45.362Z,60.58223
2022-09-09T02:03:47.176Z,61.26155
2022-09-09T02:08:48.704Z,62.92629
2022-09-09T02:13:50.335Z,61.55262
2022-09-09T02:18:51.735Z,63.66264
2022-09-09T02:23:53.430Z,61.82248
2022-09-09T02:28:54.965Z,62.35254
2022-09-09T02:33:57.007Z,62.96728
2022-09-09T02:38:58.624Z,65.65797
2022-09-09T02:44:00.091Z,63.91067
2022-09-09T02:49:01.790Z,66.16806
2022-09-09T02:54:03.305Z,64.61112
2022-09-09T02:59:04.895Z,64.71774
2022-09-09T03:09:17.422Z,66.9944
2022-09-09T03:14:19.299Z,65.42488
2022-09-09T03:19:21.062Z,64.8305
2022-09-09T03:24:22.487Z,65.44015
2022-09-09T03:29:24.011Z,66.14425
2022-09-09T03:34:25.599Z,66.18827
2022-09-09T03:39:27.453Z,67.62074
2022-09-09T03:44:28.929Z,67.8993
2022-09-09T03:49:30.599Z,67.49068
2022-09-09T03:54:32.484Z,68.48327
2022-09-09T03:59:34.255Z,66.40101
2022-09-09T04:04:36.017Z,66.94248
2022-09-09T04:09:38.170Z,67.12964
2022-09-09T04:14:40.024Z,67.46109
2022-09-09T04:19:41.869Z,66.11475
2022-09-09T04:24:48.174Z,64.62997
2022-09-09T04:29:50.753Z,65.91242
2022-09-09T04:34:52.654Z,64.5591
2022-09-09T04:39:54.784Z,65.4362
2022-09-09T04:44:56.677Z,64.53196
2022-09-09T04:49:58.462Z,65.35859
2022-09-09T04:55:00.267Z,66.12291
2022-09-09T05:00:02.014Z,63.68608
2022-09-09T05:05:04.079Z,64.19249
2022-09-09T05:10:06.865Z,61.52105
2022-09-09T05:15:08.615Z,62.33387
2022-09-09T05:20:14.490Z,62.90745
2022-09-09T05:25:18.864Z,59.98011
2022-09-09T05:30:20.606Z,59.03408
2022-09-09T05:35:22.058Z,57.73733
2022-09-09T05:40:24.335Z,54.76464
2022-09-09T05:45:25.761Z,53.45465
2022-09-09T05:50:31.445Z,51.52096
2022-09-09T05:55:33.233Z,48.60654
2022-09-09T06:00:34.735Z,47.73653
2022-09-09T06:05:36.205Z,47.12091
2022-09-09T06:10:38.288Z,47.57455
2022-09-09T06:15:39.961Z,44.88775
2022-09-09T06:20:41.726Z,45.78993
2022-09-09T06:25:43.524Z,45.89709
2022-09-09T06:30:45.320Z,42.76553
2022-09-09T06:35:47.253Z,40.40243
2022-09-09T06:40:49.207Z,38.42685
2022-09-09T06:45:51.162Z,38.0584
2022-09-09T06:50:52.983Z,35.54738
2022-09-09T06:55:54.801Z,35.1558
2022-09-09T07:00:56.632Z,34.312
2022-09-09T07:05:58.427Z,33.86018
2022-09-09T07:11:00.603Z,32.71919
2022-09-09T07:16:02.323Z,33.26931
2022-09-09T07:21:03.999Z,32.4868
2022-09-09T07:26:05.785Z,33.77488
2022-09-09T07:31:07.560Z,30.80187
2022-09-09T07:36:09.669Z,31.42645
2022-09-09T07:41:11.536Z,30.54354
2022-09-09T07:46:13.485Z,29.4913
2022-09-09T07:51:15.325Z,31.58426
2022-09-09T07:56:17.182Z,27.88464
2022-09-09T08:01:19.241Z,27.86226
2022-09-09T08:06:21.068Z,27.15571
2022-09-09T08:11:22.732Z,27.39541
2022-09-09T08:16:24.210Z,25.5617
2022-09-09T08:21:25.896Z,25.25441
2022-09-09T08:26:27.509Z,22.97646
2022-09-09T08:31:28.956Z,22.21314
2022-09-09T08:36:30.482Z,20.56849
2022-09-09T08:41:32.135Z,19.3266
2022-09-09T08:46:34.034Z,19.27234
2022-09-09T08:51:35.739Z,19.5781
2022-09-09T08:56:37.313Z,19.99451
2022-09-09T09:01:38.819Z,18.02752
2022-09-09T09:06:40.295Z,17.73575
2022-09-09T09:11:42.209Z,17.49396
2022-09-09T09:16:43.752Z,16.9453
2022-09-09T09:21:45.278Z,17.56155
2022-09-09T09:26:46.954Z,16.44043
2022-09-09T09:31:48.438Z,17.18036
2022-09-09T09:36:50.392Z,17.11122
2022-09-09T09:41:52.220Z,16.05012
2022-09-09T09:46:53.714Z,16.54181
2022-09-09T09:51:55.317Z,16.50547
2022-09-09T09:56:57.086Z,15.54313
2022-09-09T10:01:58.577Z,15.68725
2022-09-09T10:07:00.373Z,16.42416
2022-09-09T10:12:02.077Z,16.23765
2022-09-09T10:17:04.013Z,14.77086
2022-09-09T10:22:05.915Z,16.03318
2022-09-09T10:27:07.761Z,15.66375
2022-09-09T10:32:09.531Z,15.60168
2022-09-09T10:37:11.313Z,14.83136
2022-09-09T10:42:13.779Z,15.263
2022-09-09T10:47:15.528Z,14.63177
2022-09-09T10:52:16.986Z,14.48361
2022-09-09T10:57:18.662Z,14.43062
2022-09-09T11:02:20.125Z,13.92912
2022-09-09T11:07:21.696Z,14.73813
2022-09-09T11:12:23.373Z,14.28442
2022-09-09T11:17:24.850Z,14.30938
2022-09-09T11:22:26.540Z,14.0496
2022-09-09T11:27:28.378Z,15.10788
2022-09-09T11:32:29.810Z,14.82393
2022-09-09T11:37:31.623Z,14.76746
2022-09-09T11:42:33.629Z,15.14358
2022-09-09T11:47:35.503Z,14.31148
2022-09-09T11:52:37.436Z,15.05204
2022-09-09T11:57:39.541Z,14.96762
2022-09-09T12:02:41.477Z,14.76365
2022-09-09T12:07:43.380Z,14.75163
2022-09-09T12:12:45.484Z,14.30069
2022-09-09T12:17:47.564Z,14.21704
2022-09-09T12:22:49.480Z,14.75465
2022-09-09T12:27:51.342Z,14.8335
2022-09-09T12:32:53.393Z,14.60983
2022-09-09T12:37:55.281Z,14.42577
2022-09-09T12:42:57.720Z,14.51044
2022-09-09T12:47:59.484Z,14.81895
2022-09-09T12:53:01.280Z,13.87455
2022-09-09T12:58:03.066Z,14.34359
2022-09-09T13:03:04.828Z,14.45551
2022-09-09T13:08:06.761Z,13.97307
2022-09-09T13:13:09.041Z,14.51804
2022-09-09T13:18:10.921Z,14.40932
2022-09-09T13:23:12.774Z,14.34653
2022-09-09T13:28:14.690Z,13.84529
2022-09-09T13:33:16.538Z,13.55404
2022-09-09T13:38:18.497Z,14.56737
2022-09-09T13:43:20.878Z,14.20707
2022-09-09T13:48:22.662Z,13.69039
2022-09-09T13:53:24.309Z,13.86048
2022-09-09T13:58:25.860Z,14.28149
2022-09-09T14:03:27.412Z,14.2576
2022-09-09T14:08:29.197Z,15.41109
2022-09-09T14:13:31.017Z,15.43204
2022-09-09T14:18:32.702Z,15.5889
2022-09-09T14:23:34.248Z,15.76928
2022-09-09T14:28:55.222Z,15.95327
2022-09-09T14:33:57.800Z,15.64909
2022-09-09T14:38:59.618Z,15.93574
2022-09-09T14:44:01.671Z,15.87885
2022-09-09T14:49:03.354Z,16.71027
2022-09-09T14:54:05.149Z,16.46253
2022-09-09T14:59:06.835Z,16.48284
2022-09-09T15:04:08.490Z,16.43591
2022-09-09T15:09:10.467Z,16.04207
2022-09-09T15:14:12.464Z,16.04852
2022-09-09T15:19:14.110Z,16.62384
2022-09-09T15:24:15.902Z,17.46071
2022-09-09T15:29:17.793Z,16.97318
2022-09-09T15:34:19.648Z,17.4574
2022-09-09T15:39:21.401Z,18.02254
2022-09-09T15:44:23.435Z,17.92954
2022-09-09T15:49:25.150Z,18.31871
2022-09-09T15:54:26.600Z,18.72777
2022-09-09T15:59:28.345Z,19.04419
2022-09-09T16:04:29.919Z,19.55827
2022-09-09T16:09:31.468Z,19.32704
2022-09-09T16:14:33.162Z,19.56876
2022-09-09T16:19:34.709Z,20.37158
2022-09-09T16:24:36.215Z,20.37439
2022-09-09T16:29:37.800Z,20.67175
2022-09-09T16:34:39.247Z,20.94173
2022-09-09T16:39:40.829Z,21.44904
2022-09-09T16:44:42.535Z,21.32106
2022-09-09T16:49:44.143Z,21.11064
2022-09-09T16:54:45.596Z,20.84598
2022-09-09T16:59:47.154Z,21.03992
2022-09-09T17:04:48.604Z,21.86092
2022-09-09T17:09:50.331Z,21.75143
2022-09-09T17:14:52.528Z,22.19695
2022-09-09T17:19:53.954Z,22.32261
2022-09-09T17:24:55.797Z,23.09916
2022-09-09T17:29:59.159Z,22.69918
2022-09-09T17:35:00.628Z,23.22131
2022-09-09T17:40:02.474Z,23.07636
2022-09-09T17:45:05.358Z,22.92715
2022-09-09T17:50:07.061Z,24.5077
2022-09-09T17:55:09.274Z,24.08705
2022-09-09T18:00:11.815Z,24.8073
2022-09-09T18:05:13.507Z,25.70876
2022-09-09T18:10:15.076Z,25.99515
2022-09-09T18:15:28.248Z,26.19527
2022-09-09T18:20:41.712Z,26.71923
2022-09-09T18:25:43.371Z,26.87121
2022-09-09T18:30:45.371Z,27.01998
2022-09-09T18:35:47.155Z,26.76237
2022-09-09T18:40:48.801Z,26.79425
2022-09-09T18:45:50.920Z,26.37682
2022-09-09T18:50:52.726Z,26.51957
2022-09-09T18:55:54.239Z,27.17037
2022-09-09T19:00:56.093Z,27.40288
2022-09-09T19:05:57.917Z,28.09634
2022-09-09T19:10:59.648Z,28.05296
2022-09-09T19:16:01.771Z,28.72687
2022-09-09T19:21:03.687Z,29.41499
2022-09-09T19:26:05.576Z,31.31954
2022-09-09T19:31:07.493Z,31.80022
2022-09-09T19:36:09.332Z,32.08494
2022-09-09T19:41:11.010Z,32.40641
2022-09-09T19:46:13.185Z,32.57228
2022-09-09T19:51:14.981Z,32.63441
2022-09-09T19:56:16.745Z,32.75228
2022-09-09T20:01:18.315Z,32.41928
2022-09-09T20:06:20.129Z,34.5246
2022-09-09T20:11:21.993Z,34.98316
2022-09-09T20:16:24.373Z,34.95694
2022-09-09T20:21:26.211Z,35.71485
2022-09-09T20:26:27.637Z,35.28293
2022-09-09T20:31:29.424Z,36.45072
2022-09-09T20:36:30.880Z,35.67764
2022-09-09T20:41:32.447Z,35.53523
2022-09-09T20:46:36.191Z,35.45128
2022-09-09T20:51:37.680Z,35.64629
2022-09-09T20:56:39.154Z,36.71333
2022-09-09T21:01:41.260Z,36.31934
2022-09-09T21:06:42.986Z,36.05669
2022-09-09T21:11:44.561Z,35.80959
2022-09-09T21:16:46.318Z,36.50846
2022-09-09T21:21:48.033Z,39.28333
2022-09-09T21:26:49.527Z,38.58396
2022-09-09T21:31:51.077Z,37.46342
2022-09-09T21:36:53.299Z,38.03994
2022-09-09T21:41:56.167Z,37.61556
2022-09-09T21:46:58.691Z,40.71608
2022-09-09T21:52:00.141Z,40.62506
2022-09-09T21:57:01.659Z,40.86326
2022-09-09T22:02:03.854Z,40.98766
2022-09-09T22:07:05.537Z,41.52062
2022-09-09T22:12:07.089Z,41.83792
2022-09-09T22:17:09.049Z,42.31266
2022-09-09T22:22:10.800Z,41.63388
2022-09-09T22:27:12.242Z,42.21126
2022-09-09T22:32:13.698Z,42.63349
2022-09-09T22:37:15.145Z,42.87947
2022-09-09T22:42:16.658Z,41.90492
2022-09-09T22:47:18.899Z,41.04114
2022-09-09T22:52:20.867Z,40.95659
2022-09-09T22:57:22.329Z,41.16721
2022-09-09T23:02:23.785Z,41.91012
2022-09-09T23:07:25.386Z,42.62153
2022-09-09T23:12:27.109Z,43.1764
2022-09-09T23:17:29.233Z,43.14175
2022-09-09T23:22:30.884Z,43.30576
2022-09-09T23:27:32.577Z,42.89974
2022-09-09T23:32:34.646Z,43.5773
2022-09-09T23:37:36.358Z,44.76091
2022-09-09T23:42:38.102Z,45.23489
2022-09-09T23:47:40.176Z,45.43908
2022-09-09T23:52:42.155Z,46.07157
2022-09-09T23:57:43.692Z,45.62318
